Terminal Aerodrome Forecast
Issued by NWS

Home | Current Version | Previous Version | Text Only | Print | Product List | Glossary On
Versions: 1 2 3 4 5 6 7 8 9 10 11 12 13 14 15 16 17 18 19 20 21
000
FTUS43 KILX 171100
TAFCMI
TAF
KCMI 171129Z 1712/1812 17009KT P6SM BKN250
     FM171500 22014KT P6SM BKN150
     FM180000 VRB05KT P6SM BKN100
     FM180800 01005KT P6SM OVC060 PROB30 1808/1812 -SHRA=

USA.gov is the U.S. government's official web portal to all federal, state and local government web resources and services.